Time;durP1;ratioP1;P1;durP2;ratioP2;P2;SDS_P1;SDS_P2;PMS_P1;PMS_P2;Temp;Humidity;BMP_temperature;BMP_pressure;BME280_temperature;BME280_humidity;BME280_pressure;Samples;Min_cycle;Max_cycle;Signal;HPM_P1;HPM_P2
2022/05/30 00:02:50;;;;;;;6.25;2.50;;;;;;;14.59;57.03;99866.88;5398878;32;34835;-69
2022/05/30 00:05:53;;;;;;;3.53;1.97;;;;;;;14.53;56.33;99867.25;5396626;32;34651;-66
2022/05/30 00:08:56;;;;;;;5.32;2.28;;;;;;;14.66;55.50;99848.81;5384014;32;35137;-67
2022/05/30 00:11:58;;;;;;;5.32;2.10;;;;;;;14.54;56.46;99853.94;5391341;32;34100;-72
2022/05/30 00:15:00;;;;;;;3.50;1.97;;;;;;;14.25;57.44;99852.25;5405364;32;36781;-67
2022/05/30 00:18:03;;;;;;;4.10;2.50;;;;;;;14.81;53.93;99846.03;5396844;32;34978;-67
2022/05/30 00:21:05;;;;;;;2.53;1.90;;;;;;;15.13;52.78;99835.97;5415694;32;34503;-66
2022/05/30 00:24:07;;;;;;;6.33;2.10;;;;;;;15.13;52.77;99843.91;5398949;32;35234;-66
2022/05/30 00:27:11;;;;;;;5.13;2.20;;;;;;;14.47;54.62;99846.50;5400876;32;34554;-66
2022/05/30 00:30:14;;;;;;;4.33;1.90;;;;;;;15.08;52.53;99832.78;5387884;32;34873;-66
2022/05/30 00:33:18;;;;;;;4.68;1.95;;;;;;;14.28;54.57;99839.69;5394266;32;44620;-70
2022/05/30 00:36:20;;;;;;;4.53;1.93;;;;;;;14.23;54.98;99836.50;5415127;32;35866;-68
2022/05/30 00:39:22;;;;;;;6.72;2.00;;;;;;;13.64;56.31;99837.53;5399415;32;35587;-66
2022/05/30 00:42:26;;;;;;;4.90;1.80;;;;;;;13.90;56.11;99822.72;5412817;32;34498;-66
2022/05/30 00:45:28;;;;;;;4.18;2.00;;;;;;;14.59;53.39;99817.47;5396214;32;34504;-69
2022/05/30 00:48:33;;;;;;;4.37;1.83;;;;;;;14.22;54.11;99811.00;5387836;32;35499;-66
2022/05/30 00:51:38;;;;;;;3.87;2.10;;;;;;;14.92;52.26;99802.97;5402325;32;35265;-70
2022/05/30 00:54:44;;;;;;;4.60;1.80;;;;;;;14.68;52.43;99802.78;5367793;32;36390;-67
2022/05/30 00:57:47;;;;;;;4.67;2.17;;;;;;;14.93;51.75;99795.87;5388476;32;46957;-67
2022/05/30 01:00:49;;;;;;;4.45;1.95;;;;;;;15.27;51.02;99791.84;5385237;32;34787;-67
2022/05/30 01:07:16;;;;;;;5.60;2.00;;;;;;;14.77;51.53;99785.47;5390453;32;44598;-67
2022/05/30 01:10:21;;;;;;;2.80;1.80;;;;;;;14.79;51.22;99786.22;5384953;32;34809;-70
2022/05/30 01:13:27;;;;;;;4.30;1.70;;;;;;;13.94;53.48;99795.19;5405442;32;35506;-67
2022/05/30 01:16:29;;;;;;;4.03;1.87;;;;;;;13.75;54.01;99790.19;5379721;32;34960;-67
2022/05/30 01:19:36;;;;;;;2.90;1.80;;;;;;;14.54;52.07;99786.97;5407962;32;35492;-66
2022/05/30 01:23:10;;;;;;;4.60;1.90;;;;;;;15.23;50.42;99787.69;5384140;32;35195;-65
2022/05/30 01:26:20;;;;;;;;;;;;;;;15.56;48.78;99780.09;5375256;32;34490;-67
2022/05/30 01:29:50;;;;;;;4.77;2.00;;;;;;;15.34;49.97;99769.28;5394029;32;47840;-71
2022/05/30 01:32:57;;;;;;;2.97;1.67;;;;;;;15.00;49.84;99768.91;5378278;32;44354;-67
2022/05/30 01:35:59;;;;;;;3.63;1.90;;;;;;;13.75;54.09;99779.63;5387463;32;34170;-66
2022/05/30 01:39:02;;;;;;;4.23;1.80;;;;;;;14.69;51.39;99774.56;5399607;32;35650;-70
2022/05/30 01:42:05;;;;;;;1.75;1.60;;;;;;;14.86;51.05;99769.00;5391432;32;34684;-67
2022/05/30 01:45:08;;;;;;;3.95;1.95;;;;;;;15.21;49.28;99764.00;5393315;32;34489;-67
2022/05/30 01:48:10;;;;;;;3.67;1.90;;;;;;;15.57;48.98;99767.69;5385551;32;35161;-66
2022/05/30 01:51:14;;;;;;;3.70;1.80;;;;;;;14.99;49.87;99772.50;5403227;32;34726;-66
2022/05/30 01:54:16;;;;;;;3.37;1.70;;;;;;;15.55;48.08;99765.16;5391653;32;44660;-66
2022/05/30 01:57:18;;;;;;;3.50;1.60;;;;;;;15.12;49.02;99776.03;5380694;32;34902;-66
2022/05/30 02:00:20;;;;;;;4.23;1.87;;;;;;;14.30;51.36;99771.72;5400906;32;34747;-66
2022/05/30 02:03:22;;;;;;;2.33;1.60;;;;;;;15.01;49.71;99764.50;5394598;32;35720;-66
2022/05/30 02:06:26;;;;;;;2.57;1.43;;;;;;;14.20;52.20;99769.75;5407538;32;35036;-66
2022/05/30 02:09:28;;;;;;;5.80;2.00;;;;;;;14.42;51.21;99778.00;5401668;32;34843;-67
2022/05/30 02:12:31;;;;;;;4.00;1.87;;;;;;;14.73;50.29;99773.41;5407351;32;34515;-69
2022/05/30 02:17:00;;;;;;;2.93;1.50;;;;;;;14.22;51.94;99775.78;5396845;32;34771;-66
2022/05/30 02:18:57;;;;;;;3.67;1.87;;;;;;;14.12;52.33;99777.34;5401087;32;34543;-69
2022/05/30 02:22:00;;;;;;;6.30;1.93;;;;;;;13.97;52.20;99776.50;5415153;32;34971;-66
2022/05/30 02:25:02;;;;;;;;;;;;;;;14.00;52.61;99776.31;5398733;32;34530;-69
2022/05/30 02:28:04;;;;;;;3.23;1.77;;;;;;;14.95;50.08;99778.13;5410005;32;34234;-67
2022/05/30 02:31:06;;;;;;;5.93;1.90;;;;;;;14.85;49.80;99784.00;5397939;32;35128;-70
2022/05/30 02:37:31;;;;;;;3.47;1.63;;;;;;;14.96;49.09;99778.03;5384677;32;35043;-71
2022/05/30 02:40:33;;;;;;;3.20;1.73;;;;;;;14.73;48.99;99784.81;5395954;32;35158;-70
2022/05/30 02:43:35;;;;;;;5.80;1.77;;;;;;;14.71;49.40;99785.88;5399433;32;34659;-67
2022/05/30 02:46:38;;;;;;;6.93;2.00;;;;;;;14.42;50.47;99795.66;5399182;32;34611;-70
2022/05/30 02:49:40;;;;;;;2.77;1.67;;;;;;;14.81;49.52;99786.97;5408561;32;35562;-67
2022/05/30 02:52:42;;;;;;;5.27;1.70;;;;;;;14.70;49.53;99782.38;5400209;32;35276;-66
2022/05/30 02:55:44;;;;;;;5.80;1.83;;;;;;;14.92;49.27;99800.34;5380747;32;46579;-66
2022/05/30 02:58:46;;;;;;;3.17;1.97;;;;;;;14.82;48.65;99797.47;5409654;32;34527;-67
2022/05/30 03:01:49;;;;;;;5.33;1.70;;;;;;;15.07;48.54;99804.63;5397533;32;34834;-66
2022/05/30 03:04:51;;;;;;;4.17;1.60;;;;;;;14.62;49.40;99819.09;5408490;32;35324;-66
2022/05/30 03:07:53;;;;;;;5.47;1.90;;;;;;;15.10;48.75;99815.00;5399721;32;34365;-66
2022/05/30 03:10:55;;;;;;;4.43;1.60;;;;;;;14.90;48.97;99818.13;5409039;32;35195;-70
2022/05/30 03:13:57;;;;;;;2.73;1.30;;;;;;;14.85;49.30;99821.06;5400666;32;34831;-72
2022/05/30 03:16:59;;;;;;;2.50;1.60;;;;;;;15.04;48.55;99817.19;5385948;32;35231;-67
2022/05/30 03:20:02;;;;;;;6.80;1.60;;;;;;;15.31;48.02;99822.44;5413740;32;34584;-66
2022/05/30 03:23:05;;;;;;;4.37;1.33;;;;;;;15.18;48.27;99819.75;5399214;32;35557;-67
2022/05/30 03:26:07;;;;;;;3.17;1.60;;;;;;;14.73;49.50;99824.50;5401352;32;34847;-70
2022/05/30 03:29:09;;;;;;;5.63;1.70;;;;;;;14.65;49.77;99833.87;5400801;32;34531;-70
2022/05/30 03:32:11;;;;;;;3.40;1.60;;;;;;;14.86;49.24;99837.78;5417313;32;34588;-70
2022/05/30 03:35:15;;;;;;;4.67;1.70;;;;;;;14.92;49.14;99847.97;5397003;32;34518;-67
2022/05/30 03:38:17;;;;;;;3.40;1.57;;;;;;;15.09;48.73;99844.22;5381412;32;45264;-71
2022/05/30 03:41:19;;;;;;;3.07;1.57;;;;;;;15.82;47.13;99841.87;5406357;32;34241;-68
2022/05/30 03:44:21;;;;;;;3.73;1.50;;;;;;;15.58;47.57;99836.44;5400154;32;35424;-66
2022/05/30 03:47:24;;;;;;;2.10;1.50;;;;;;;14.45;50.58;99843.91;5407137;32;35557;-71
2022/05/30 03:50:26;;;;;;;3.63;1.67;;;;;;;14.56;50.26;99849.41;5375307;32;34617;-65
2022/05/30 03:53:32;;;;;;;2.87;1.63;;;;;;;14.86;49.49;99837.78;5415372;32;34495;-67
2022/05/30 03:56:34;;;;;;;6.83;2.67;;;;;;;14.82;49.82;99833.66;5368113;32;34758;-65
2022/05/30 03:59:36;;;;;;;6.93;1.90;;;;;;;14.81;50.27;99826.63;5400534;32;34760;-66
2022/05/30 04:02:38;;;;;;;4.77;1.70;;;;;;;15.55;47.91;99831.38;5401475;32;34858;-70
2022/05/30 04:05:40;;;;;;;6.70;2.00;;;;;;;15.90;46.91;99825.44;5394113;32;35276;-66
2022/05/30 04:08:42;;;;;;;3.47;2.00;;;;;;;16.24;46.47;99816.81;5414085;32;34519;-67
2022/05/30 04:11:44;;;;;;;4.30;1.70;;;;;;;15.77;47.75;99824.63;5397295;32;43510;-67
2022/05/30 04:14:54;;;;;;;4.43;1.80;;;;;;;15.23;48.88;99828.25;5414552;32;34755;-67
2022/05/30 04:17:56;;;;;;;8.17;2.53;;;;;;;16.42;45.84;99825.28;5380283;32;34780;-69
2022/05/30 04:20:58;;;;;;;4.93;1.90;;;;;;;15.84;47.36;99840.00;5399308;32;34310;-70
2022/05/30 04:24:00;;;;;;;4.53;2.57;;;;;;;16.38;46.99;99836.22;5416324;32;34329;-67
2022/05/30 04:27:02;;;;;;;5.83;2.50;;;;;;;16.92;45.61;99833.16;5389931;32;34895;-66
2022/05/30 04:30:07;;;;;;;6.23;2.63;;;;;;;16.51;46.98;99844.97;5413436;32;34764;-71
2022/05/30 04:33:09;;;;;;;4.73;1.90;;;;;;;16.54;47.35;99847.38;5381743;32;33530;-70
2022/05/30 04:36:13;;;;;;;5.10;2.30;;;;;;;16.95;46.40;99839.09;5395132;32;34508;-67
2022/05/30 04:39:16;;;;;;;4.77;2.10;;;;;;;16.58;47.28;99843.56;5406940;32;44761;-69
2022/05/30 04:42:18;;;;;;;7.10;2.40;;;;;;;16.32;47.13;99849.91;5390004;32;35237;-70
2022/05/30 04:45:21;;;;;;;15.90;2.75;;;;;;;16.17;47.37;99850.03;5411648;32;34889;-70
2022/05/30 04:48:23;;;;;;;5.40;2.53;;;;;;;15.64;48.74;99862.53;5394896;32;35221;-68
2022/05/30 04:51:26;;;;;;;5.83;2.33;;;;;;;15.74;48.92;99859.28;5405308;32;35526;-67
2022/05/30 04:54:28;;;;;;;6.35;2.80;;;;;;;16.01;47.81;99867.12;5391880;32;34236;-71
2022/05/30 04:57:30;;;;;;;4.03;2.20;;;;;;;16.39;47.44;99865.25;5381960;32;35427;-72
2022/05/30 05:00:32;;;;;;;6.23;2.80;;;;;;;16.85;46.21;99874.38;5403462;32;35106;-67
2022/05/30 05:03:35;;;;;;;8.37;2.10;;;;;;;16.49;47.24;99873.44;5383914;32;34867;-69
2022/05/30 05:06:38;;;;;;;5.30;3.08;;;;;;;16.72;46.52;99880.59;5414084;32;35195;-67
2022/05/30 05:09:50;;;;;;;8.13;2.90;;;;;;;16.92;46.32;99875.62;5379510;32;35460;-67
2022/05/30 05:12:52;;;;;;;4.37;1.73;;;;;;;16.44;47.08;99867.59;5415617;32;46030;-69
2022/05/30 05:15:57;;;;;;;3.43;1.70;;;;;;;16.69;46.21;99880.78;5401130;32;34231;-68
2022/05/30 05:19:00;;;;;;;6.03;2.00;;;;;;;16.79;45.93;99889.78;5376976;32;35392;-68
2022/05/30 05:22:02;;;;;;;;;;;;;;;16.93;44.99;99874.66;5402609;32;34615;-71
2022/05/30 05:25:05;;;;;;;5.30;2.63;;;;;;;15.90;48.09;99894.34;5400920;32;34611;-68
2022/05/30 05:28:07;;;;;;;4.75;1.95;;;;;;;16.36;47.16;99886.72;5411533;32;34819;-66
2022/05/30 05:31:13;;;;;;;4.65;1.87;;;;;;;17.27;44.35;99881.00;5384516;32;34829;-70
2022/05/30 05:34:16;;;;;;;5.60;2.10;;;;;;;16.91;45.16;99884.56;5396012;32;45090;-75
2022/05/30 05:37:18;;;;;;;4.03;1.92;;;;;;;17.33;44.06;99901.78;5384104;32;34269;-77
2022/05/30 05:40:20;;;;;;;5.57;1.83;;;;;;;18.07;42.29;99900.53;5386047;32;35141;-68
2022/05/30 05:43:23;;;;;;;5.20;2.20;;;;;;;17.66;43.49;99900.22;5417492;32;34105;-68
2022/05/30 05:46:27;;;;;;;5.37;2.20;;;;;;;17.62;43.26;99896.06;5397838;32;34212;-70
2022/05/30 05:49:29;;;;;;;5.03;1.90;;;;;;;18.43;41.93;99905.78;5415842;32;34117;-77
2022/05/30 05:52:32;;;;;;;5.15;1.77;;;;;;;18.74;41.36;99897.06;5388652;32;33814;-71
2022/05/30 05:55:35;;;;;;;4.87;1.57;;;;;;;19.05;40.30;99908.69;5373571;32;34222;-73
2022/05/30 05:58:37;;;;;;;3.08;1.50;;;;;;;18.04;42.09;99910.59;5398738;32;34785;-68
2022/05/30 06:01:45;;;;;;;5.53;2.20;;;;;;;17.95;42.05;99916.59;5376223;32;43915;-73
2022/05/30 06:04:47;;;;;;;5.78;2.35;;;;;;;18.79;40.90;99909.97;5411697;32;34180;-67
2022/05/30 06:07:49;;;;;;;5.07;2.30;;;;;;;20.17;37.96;99907.31;5385430;32;34067;-70
2022/05/30 06:11:11;;;;;;;5.07;1.67;;;;;;;20.42;37.30;99906.03;5387553;32;34219;-71
2022/05/30 06:14:13;;;;;;;3.70;1.80;;;;;;;21.99;34.92;99904.25;5400416;32;35352;-72
2022/05/30 06:17:16;;;;;;;6.07;1.92;;;;;;;22.88;32.78;99910.00;5401746;32;44852;-74
2022/05/30 06:20:19;;;;;;;3.03;1.73;;;;;;;23.54;31.30;99915.00;5412037;32;35603;-72
2022/05/30 06:23:21;;;;;;;;;;;;;;;21.32;34.80;99919.38;5394141;32;35510;-73
2022/05/30 06:26:23;;;;;;;4.60;1.60;;;;;;;23.43;30.49;99917.91;5390815;32;35890;-72
2022/05/30 06:29:26;;;;;;;3.87;1.60;;;;;;;23.80;30.07;99908.84;5387281;32;35256;-73
2022/05/30 06:32:28;;;;;;;5.45;1.70;;;;;;;22.42;31.55;99904.56;5411148;32;35245;-73
2022/05/30 06:35:31;;;;;;;5.30;1.87;;;;;;;22.84;31.36;99913.91;5379147;32;35048;-73
2022/05/30 06:38:33;;;;;;;3.53;1.70;;;;;;;22.22;32.59;99915.44;5403984;32;34175;-67
2022/05/30 06:41:35;;;;;;;4.70;1.90;;;;;;;20.78;35.09;99924.16;5398494;32;35344;-68
2022/05/30 06:44:38;;;;;;;3.28;1.98;;;;;;;21.35;34.58;99927.09;5404049;32;35302;-63
2022/05/30 06:47:40;;;;;;;2.33;1.40;;;;;;;22.74;32.36;99927.38;5416591;32;34304;-66
2022/05/30 06:50:42;;;;;;;3.42;1.65;;;;;;;22.43;31.99;99924.97;5402518;32;35084;-67
2022/05/30 06:53:45;;;;;;;3.72;1.27;;;;;;;19.86;35.61;99935.78;5405229;32;44794;-69
2022/05/30 07:00:08;;;;;;;4.00;1.95;;;;;;;21.49;32.63;99924.00;5397858;32;34132;-65
2022/05/30 07:03:21;;;;;;;4.32;1.37;;;;;;;22.07;32.56;99931.94;5413944;32;34163;-67
2022/05/30 07:06:34;;;;;;;3.72;1.50;;;;;;;22.38;31.11;99937.09;5325561;32;20241;-89
2022/05/30 07:09:38;;;;;;;2.62;1.30;;;;;;;23.43;29.70;99939.34;5309625;32;33445;-89
2022/05/30 07:12:41;;;;;;;3.97;1.52;;;;;;;22.05;30.40;99936.62;5303661;32;32862;-90
2022/05/30 07:15:57;;;;;;;6.32;1.48;;;;;;;23.17;29.37;99920.50;5356647;32;34850;-96
2022/05/30 07:19:08;;;;;;;5.15;1.70;;;;;;;25.76;26.39;99918.50;5347897;32;35171;-91
2022/05/30 07:22:14;;;;;;;4.60;1.90;;;;;;;26.59;25.41;99923.59;5343379;32;33455;-92
2022/05/30 07:25:19;;;;;;;7.55;2.10;;;;;;;26.33;25.56;99924.66;5324068;32;45416;-93
2022/05/30 07:28:30;;;;;;;4.43;2.03;;;;;;;24.19;29.45;99926.22;5303781;32;421747;-89
2022/05/30 07:31:33;;;;;;;2.22;1.30;;;;;;;25.30;27.06;99918.13;5342591;32;33436;-91
2022/05/30 07:34:37;;;;;;;5.20;1.90;;;;;;;24.55;27.30;99920.75;5340250;32;34459;-90
2022/05/30 07:37:42;;;;;;;7.40;3.30;;;;;;;23.74;29.87;99923.72;5348046;32;34564;-93
2022/05/30 07:40:58;;;;;;;9.10;2.15;;;;;;;24.21;29.75;99901.91;5348971;32;44554;-94
2022/05/30 07:44:05;;;;;;;8.30;2.10;;;;;;;24.03;29.30;99934.19;5354401;32;35779;-95
2022/05/30 07:47:16;;;;;;;4.12;1.65;;;;;;;23.86;29.52;99932.37;5346654;32;36100;-96
2022/05/30 07:50:27;;;;;;;5.07;1.77;;;;;;;22.06;30.76;99932.09;5361216;32;35051;-90
2022/05/30 07:53:35;;;;;;;5.18;2.20;;;;;;;22.09;30.40;99938.06;5328988;32;34270;-91
2022/05/30 07:56:39;;;;;;;4.00;1.50;;;;;;;24.22;26.50;99933.97;5315131;32;34002;-93
2022/05/30 07:59:49;;;;;;;4.43;1.50;;;;;;;23.46;27.32;99942.59;5359830;32;33052;-93
2022/05/30 08:02:53;;;;;;;3.60;1.60;;;;;;;21.92;28.29;99936.06;5371616;32;43237;-90
2022/05/30 08:06:08;;;;;;;2.85;1.48;;;;;;;21.05;29.52;99930.69;5337924;32;33706;-93
2022/05/30 08:09:15;;;;;;;4.03;1.50;;;;;;;22.08;28.75;99941.66;5336577;32;32588;-92
2022/05/30 08:12:21;;;;;;;3.12;1.60;;;;;;;21.44;30.19;99941.44;5353326;32;44177;-91
2022/05/30 08:15:29;;;;;;;2.17;1.40;;;;;;;22.86;28.42;99936.03;5326882;32;33818;-94
2022/05/30 08:18:38;;;;;;;2.95;1.62;;;;;;;23.64;26.92;99914.94;5353353;32;35207;-93
2022/05/30 08:21:45;;;;;;;4.03;1.80;;;;;;;22.48;29.01;99943.28;5354480;32;34573;-92
2022/05/30 08:24:52;;;;;;;2.45;1.50;;;;;;;23.17;28.73;99944.62;5354778;32;43722;-87
2022/05/30 08:27:57;;;;;;;6.65;2.75;;;;;;;24.01;27.42;99925.44;5350801;32;33709;-88
2022/05/30 08:31:01;;;;;;;6.82;2.08;;;;;;;21.45;32.07;99962.72;5346153;32;34148;-88
2022/05/30 08:34:04;;;;;;;4.35;1.60;;;;;;;22.51;31.29;99953.69;5343411;32;33718;-90
2022/05/30 08:37:09;;;;;;;3.22;1.40;;;;;;;23.42;29.91;99962.66;5384129;32;34415;-92
2022/05/30 08:43:49;;;;;;;9.40;1.75;;;;;;;25.50;25.99;99959.00;5391023;32;34337;-95
2022/05/30 08:47:30;;;;;;;4.55;1.70;;;;;;;24.92;27.08;99954.47;5384398;32;35445;-90
2022/05/30 08:50:59;;;;;;;4.43;1.75;;;;;;;24.40;27.04;99928.56;5362582;32;34554;-90
2022/05/30 08:54:25;;;;;;;5.95;2.50;;;;;;;23.71;27.22;99922.22;5361166;32;33292;-96
2022/05/30 08:58:10;;;;;;;3.17;1.55;;;;;;;24.84;26.02;99937.31;5372120;32;33438;-95
2022/05/30 09:01:43;;;;;;;4.07;1.73;;;;;;;25.26;25.99;99931.09;5305632;32;32620;-93
2022/05/30 09:05:06;;;;;;;10.57;6.20;;;;;;;26.08;24.79;99947.25;5308557;32;33415;-93
2022/05/30 09:08:51;;;;;;;5.78;2.20;;;;;;;23.86;28.10;99954.69;5342859;32;34500;-91
2022/05/30 09:12:14;;;;;;;3.17;1.50;;;;;;;24.94;27.86;99965.94;5336204;32;33467;-95
2022/05/30 09:15:56;;;;;;;4.80;1.80;;;;;;;23.84;29.94;99980.00;5358038;32;34675;-93
2022/05/30 09:19:06;;;;;;;3.22;1.65;;;;;;;24.05;29.21;99967.91;5338896;32;33810;-94
2022/05/30 09:22:21;;;;;;;5.43;1.77;;;;;;;23.41;29.99;99969.00;5317120;33;33624;-92
2022/05/30 09:25:56;;;;;;;5.55;1.95;;;;;;;23.24;29.90;99976.03;5320000;33;33746;-89
2022/05/30 09:29:17;;;;;;;5.10;1.62;;;;;;;23.15;29.54;99973.44;5298755;33;37156;-86
2022/05/30 09:32:33;;;;;;;3.65;2.28;;;;;;;22.83;30.88;99960.47;5312119;33;45449;-93
2022/05/30 09:35:42;;;;;;;6.78;2.17;;;;;;;23.24;30.72;99969.81;5307529;33;33881;-90
2022/05/30 09:38:47;;;;;;;9.20;2.70;;;;;;;22.78;32.12;99954.69;5293190;33;32912;-93
2022/05/30 09:41:57;;;;;;;9.25;1.80;;;;;;;22.27;33.19;99956.88;5305060;33;34124;-92
2022/05/30 09:45:18;;;;;;;2.70;1.52;;;;;;;21.46;34.92;99975.09;5346857;32;34100;-89
2022/05/30 09:48:22;;;;;;;4.15;1.70;;;;;;;23.35;31.26;99964.25;5360506;32;44335;-92
2022/05/30 09:51:51;;;;;;;4.50;1.75;;;;;;;23.96;29.68;99962.66;5358243;32;33625;-92
2022/05/30 09:54:58;;;;;;;5.65;1.80;;;;;;;23.47;30.88;99981.81;5337860;32;35456;-87
2022/05/30 09:58:05;;;;;;;5.00;1.92;;;;;;;21.56;34.50;99985.78;5320652;32;35717;-90
2022/05/30 10:01:24;;;;;;;9.57;2.47;;;;;;;20.95;35.94;99991.28;5333798;32;35263;-93
2022/05/30 10:05:01;;;;;;;5.80;2.10;;;;;;;20.78;36.54;99974.06;5322867;33;35397;-91
2022/05/30 10:08:08;;;;;;;5.30;1.60;;;;;;;21.79;33.50;99979.19;5336057;32;32906;-91
2022/05/30 10:11:30;;;;;;;2.47;1.60;;;;;;;20.91;34.98;99998.69;5325725;33;34029;-92
2022/05/30 10:14:39;;;;;;;5.25;2.10;;;;;;;22.49;32.54;99992.31;5355238;32;33156;-90
2022/05/30 10:17:43;;;;;;;2.53;1.67;;;;;;;21.93;33.57;99993.94;5319923;33;33298;-94
2022/05/30 10:21:38;;;;;;;4.97;1.65;;;;;;;22.82;31.71;99998.97;5314309;32;44785;-91
2022/05/30 10:28:51;;;;;;;2.62;1.55;;;;;;;24.58;29.38;99958.88;5290841;33;34255;-89
2022/05/30 10:32:03;;;;;;;4.45;1.70;;;;;;;;;;5261135;33;34776;-94
2022/05/30 10:35:35;;;;;;;7.07;2.00;;;;;;;24.39;29.06;99969.84;5327662;33;44784;-90
2022/05/30 10:39:22;;;;;;;3.65;1.70;;;;;;;24.33;27.75;99991.94;5325772;33;33768;-90
2022/05/30 10:42:41;;;;;;;3.25;1.42;;;;;;;25.60;26.28;99976.69;5303275;33;32745;-91
2022/05/30 10:46:17;;;;;;;3.00;1.40;;;;;;;25.25;26.56;100009.25;5323289;33;34193;-91
2022/05/30 10:49:22;;;;;;;2.83;1.45;;;;;;;21.77;32.19;100009.75;5329630;33;44535;-92
2022/05/30 10:52:52;;;;;;;3.33;1.92;;;;;;;22.06;31.40;100015.06;5332810;33;32721;-92
2022/05/30 10:56:45;;;;;;;3.70;1.67;;;;;;;21.81;32.27;100008.44;5340390;33;34612;-95
2022/05/30 11:00:14;;;;;;;2.90;2.03;;;;;;;23.26;29.53;100010.75;5331080;32;37305;-90
2022/05/30 11:03:38;;;;;;;5.15;1.77;;;;;;;22.01;32.12;100010.13;5334072;32;44432;-92
2022/05/30 11:06:47;;;;;;;6.37;1.80;;;;;;;22.92;30.19;99999.78;5358451;32;34187;-89
2022/05/30 11:09:58;;;;;;;2.20;1.40;;;;;;;22.01;31.50;100004.78;5367099;32;44698;-93
2022/05/30 11:13:09;;;;;;;9.23;2.33;;;;;;;22.98;29.28;100004.53;5349740;32;35348;-90
2022/05/30 11:16:33;;;;;;;3.35;1.77;;;;;;;23.14;29.21;99995.88;5374780;32;36948;-90
2022/05/30 11:19:50;;;;;;;2.00;1.30;;;;;;;23.61;29.05;100022.50;5334792;32;35823;-91
2022/05/30 11:23:00;;;;;;;3.50;1.40;;;;;;;23.44;28.94;100038.44;5387213;32;34306;-92
2022/05/30 11:26:24;;;;;;;5.62;1.60;;;;;;;22.89;29.68;100034.91;5399462;32;34139;-93
2022/05/30 11:29:55;;;;;;;4.12;1.58;;;;;;;22.66;29.93;100037.91;5373800;32;34100;-91
2022/05/30 11:33:06;;;;;;;4.65;1.65;;;;;;;21.73;31.79;100045.75;5390295;32;34089;-92
2022/05/30 11:36:34;;;;;;;5.78;1.67;;;;;;;21.72;31.30;100039.56;5379859;32;44273;-94
2022/05/30 11:39:55;;;;;;;3.47;1.62;;;;;;;20.68;33.42;100045.28;5401138;32;35354;-92
2022/05/30 11:43:15;;;;;;;3.42;1.80;;;;;;;21.40;32.23;100026.44;5408401;32;34825;-92
2022/05/30 11:46:55;;;;;;;2.92;1.33;;;;;;;21.98;31.04;100036.34;5397335;32;43484;-93
2022/05/30 11:50:32;;;;;;;5.72;1.85;;;;;;;21.53;31.83;100016.31;5373076;32;33223;-89
2022/05/30 11:53:51;;;;;;;7.12;2.00;;;;;;;20.25;34.50;100035.56;5330081;32;35124;-92
2022/05/30 11:57:39;;;;;;;3.17;1.60;;;;;;;21.02;33.52;100030.66;5347274;32;43117;-90
2022/05/30 12:00:56;;;;;;;2.60;1.50;;;;;;;22.62;31.10;100011.59;5379419;32;36548;-94
2022/05/30 12:04:55;;;;;;;9.15;1.92;;;;;;;22.38;31.04;100014.75;5357177;32;36564;-93
2022/05/30 12:08:02;;;;;;;4.75;1.80;;;;;;;21.81;32.28;100019.16;5386730;32;33657;-93
2022/05/30 12:11:18;;;;;;;2.70;1.70;;;;;;;21.48;32.61;100036.44;5378397;32;34211;-93
2022/05/30 12:15:18;;;;;;;4.47;1.50;;;;;;;21.73;32.26;100043.09;5400064;32;43224;-94
2022/05/30 12:25:36;;;;;;;6.07;2.15;;;;;;;20.92;33.76;100036.94;5368177;32;34991;-90
2022/05/30 12:28:46;;;;;;;6.37;2.45;;;;;;;21.31;33.58;100044.13;5375221;32;36980;-91
2022/05/30 12:32:12;;;;;;;2.75;1.70;;;;;;;22.04;32.12;100036.63;5412371;32;45384;-95
2022/05/30 12:35:21;;;;;;;4.47;1.77;;;;;;;22.00;31.85;100035.19;5375833;32;44247;-92
2022/05/30 12:39:02;;;;;;;4.12;1.85;;;;;;;21.30;33.09;100020.22;5368778;32;33188;-92
2022/05/30 12:42:42;;;;;;;6.50;2.08;;;;;;;22.02;32.60;100006.47;5379984;32;36173;-88
2022/05/30 12:45:56;;;;;;;6.55;2.12;;;;;;;22.29;31.88;100021.00;5384197;32;34576;-92
2022/05/30 12:49:05;;;;;;;6.22;2.03;;;;;;;22.93;30.26;100022.94;5405749;32;33436;-90
2022/05/30 12:52:39;;;;;;;2.87;1.70;;;;;;;22.17;31.81;100009.59;5382296;32;34503;-95
2022/05/30 12:56:49;;;;;;;5.25;1.73;;;;;;;23.11;29.92;99999.69;5291924;33;34829;-93
2022/05/30 13:00:15;;;;;;;6.37;1.73;;;;;;;22.87;30.09;100002.91;5272648;33;34006;-93
2022/05/30 13:03:36;;;;;;;6.37;1.98;;;;;;;22.79;30.59;100013.47;5292241;33;44331;-94
2022/05/30 13:07:04;;;;;;;5.45;2.10;;;;;;;22.64;30.60;100002.41;5278482;33;34570;-91
2022/05/30 13:10:09;;;;;;;3.25;2.00;;;;;;;21.01;33.77;100020.13;5280241;33;34066;-89
2022/05/30 13:13:21;;;;;;;5.95;1.80;;;;;;;21.48;32.92;100017.72;5275542;33;34060;-93
2022/05/30 13:16:48;;;;;;;3.33;1.65;;;;;;;21.36;33.30;100015.16;5280254;33;36228;-92
2022/05/30 13:20:04;;;;;;;5.05;1.85;;;;;;;22.53;30.87;99989.19;5296834;32;35105;-94
2022/05/30 13:23:12;;;;;;;2.85;1.75;;;;;;;22.60;31.21;100017.06;5347692;27;35942;-66
2022/05/30 13:26:17;;;;;;;8.88;2.25;;;;;;;21.70;32.64;100019.28;5352106;32;46577;-70
2022/05/30 13:29:30;;;;;;;6.20;2.62;;;;;;;21.66;33.13;100020.56;5371444;32;34050;-70
2022/05/30 13:32:33;;;;;;;4.15;2.20;;;;;;;21.70;33.06;100028.16;5409036;32;34202;-65
2022/05/30 13:35:38;;;;;;;8.88;2.20;;;;;;;21.61;33.30;100026.31;5408841;32;35432;-69
2022/05/30 13:38:48;;;;;;;4.68;1.92;;;;;;;22.29;32.23;100031.69;5396986;32;35390;-69
2022/05/30 13:41:51;;;;;;;6.85;2.08;;;;;;;21.50;33.44;100031.78;5427404;32;45224;-72
2022/05/30 13:45:04;;;;;;;4.72;1.70;;;;;;;21.74;33.10;100032.25;5391656;32;35661;-75
2022/05/30 13:48:12;;;;;;;3.58;2.08;;;;;;;22.05;32.12;100043.66;5413952;32;35418;-84
2022/05/30 13:51:36;;;;;;;4.22;1.67;;;;;;;21.86;32.82;100041.81;5403718;32;34112;-82
2022/05/30 13:54:41;;;;;;;3.83;1.90;;;;;;;22.14;32.31;100042.81;5406843;32;34063;-70
2022/05/30 13:57:43;;;;;;;9.82;2.28;;;;;;;21.90;32.48;100045.06;5414802;32;35839;-71
2022/05/30 14:00:46;;;;;;;4.55;2.12;;;;;;;21.65;33.13;100045.62;5406584;32;44727;-67
2022/05/30 14:03:51;;;;;;;4.20;1.75;;;;;;;21.47;33.55;100040.94;5397410;32;34380;-71
2022/05/30 14:06:53;;;;;;;6.37;2.10;;;;;;;20.86;34.82;100032.12;5428779;32;34109;-74
2022/05/30 14:09:58;;;;;;;3.90;1.70;;;;;;;21.86;33.29;100032.94;5415319;32;37077;-82
2022/05/30 14:13:00;;;;;;;8.80;1.98;;;;;;;22.11;32.55;100037.75;5427785;32;33892;-86
2022/05/30 14:16:09;;;;;;;7.72;1.98;;;;;;;21.55;33.30;100049.12;5417868;32;33980;-77
2022/05/30 14:19:22;;;;;;;9.50;2.50;;;;;;;20.74;35.38;100052.78;5391536;32;38609;-76
2022/05/30 14:22:25;;;;;;;3.92;1.90;;;;;;;21.78;33.51;100051.53;5420600;32;35424;-75
2022/05/30 14:25:39;;;;;;;3.95;1.83;;;;;;;22.13;32.71;100048.31;5414515;32;33830;-66
2022/05/30 14:28:59;;;;;;;6.80;2.15;;;;;;;22.27;32.70;100050.56;5425703;32;42270;-71
2022/05/30 14:32:24;;;;;;;4.27;2.23;;;;;;;21.56;38.21;100052.62;5412135;32;33026;-77
2022/05/30 14:35:27;;;;;;;4.65;2.40;;;;;;;20.99;41.92;100048.78;5414923;32;34150;-79
2022/05/30 14:38:42;;;;;;;6.82;2.70;;;;;;;20.69;43.45;100063.84;5423278;32;34363;-71
2022/05/30 14:41:53;;;;;;;6.40;2.67;;;;;;;19.79;45.84;100065.25;5396854;32;46797;-75
2022/05/30 14:45:04;;;;;;;6.40;2.70;;;;;;;19.81;46.22;100061.47;5413279;32;33948;-83
2022/05/30 14:48:11;;;;;;;6.13;2.60;;;;;;;19.32;47.74;100065.47;5404911;32;34118;-78
2022/05/30 14:51:19;;;;;;;6.20;2.53;;;;;;;19.75;46.79;100067.31;5421747;32;35028;-73
2022/05/30 14:54:44;;;;;;;6.03;2.67;;;;;;;19.76;46.57;100079.69;5419589;32;44502;-75
2022/05/30 14:57:54;;;;;;;7.73;2.93;;;;;;;19.06;48.10;100070.19;5381230;32;47118;-71
2022/05/30 15:00:58;;;;;;;6.73;2.90;;;;;;;19.63;47.45;100074.50;5417475;32;35297;-73
2022/05/30 15:04:09;;;;;;;6.30;2.63;;;;;;;20.02;46.04;100073.03;5409839;32;34273;-72
2022/05/30 15:07:14;;;;;;;5.93;2.37;;;;;;;20.14;45.61;100073.00;5421292;32;33450;-80
2022/05/30 15:10:20;;;;;;;7.70;2.97;;;;;;;19.32;48.02;100064.59;5416761;32;43981;-81
2022/05/30 15:13:22;;;;;;;5.17;2.33;;;;;;;19.69;47.00;100057.16;5405541;32;34285;-79
2022/05/30 15:16:25;;;;;;;5.07;2.77;;;;;;;19.72;46.42;100068.44;5425502;32;34207;-79
2022/05/30 15:19:28;;;;;;;3.33;2.07;;;;;;;19.64;45.91;100070.87;5399807;32;34124;-78